Time;durP1;ratioP1;P1;durP2;ratioP2;P2;SDS_P1;SDS_P2;PMS_P1;PMS_P2;Temp;Humidity;BMP_temperature;BMP_pressure;BME280_temperature;BME280_humidity;BME280_pressure;Samples;Min_cycle;Max_cycle;Signal;HPM_P1;HPM_P2
2023/10/15 00:01:55;;;;;;;1.80;0.40;;;;;;;9.99;80.68;100689.22;5115289;28;20427;-74
2023/10/15 00:04:22;;;;;;;5.30;1.43;;;;;;;9.94;81.45;100697.41;5115582;28;20443;-74
2023/10/15 00:06:53;;;;;;;1.87;0.40;;;;;;;9.88;82.09;100694.00;5114956;28;20498;-74
2023/10/15 00:09:20;;;;;;;1.80;0.40;;;;;;;9.91;82.03;100700.69;5114755;28;20842;-73
2023/10/15 00:11:47;;;;;;;2.50;0.80;;;;;;;9.82;81.91;100714.88;5115551;28;20570;-70
2023/10/15 00:14:14;;;;;;;2.20;0.50;;;;;;;9.82;81.98;100708.66;5115338;28;20508;-70
2023/10/15 00:16:41;;;;;;;2.40;0.70;;;;;;;9.86;81.94;100717.81;5114818;28;20821;-70
2023/10/15 00:19:10;;;;;;;1.90;0.50;;;;;;;9.84;82.20;100714.59;5096728;28;20486;-74
2023/10/15 00:21:37;;;;;;;1.80;0.40;;;;;;;9.81;82.11;100704.38;5114459;28;20844;-73
2023/10/15 00:24:10;;;;;;;2.30;0.50;;;;;;;9.81;82.44;100712.47;5115134;28;20489;-73
2023/10/15 00:26:38;;;;;;;2.20;0.60;;;;;;;9.75;82.48;100711.75;5114707;28;20550;-73
2023/10/15 00:29:07;;;;;;;1.80;0.40;;;;;;;9.75;82.25;100703.63;5115055;28;20444;-73
2023/10/15 00:31:34;;;;;;;1.90;0.40;;;;;;;9.74;82.60;100704.75;5114240;28;20483;-73
2023/10/15 00:34:00;;;;;;;3.00;0.80;;;;;;;9.80;82.12;100700.84;5114977;28;20435;-73
2023/10/15 00:36:27;;;;;;;1.80;0.40;;;;;;;9.71;83.09;100702.63;5114571;28;20547;-73
2023/10/15 00:38:54;;;;;;;2.73;0.80;;;;;;;9.71;82.46;100694.50;5114493;28;20439;-73
2023/10/15 00:41:22;;;;;;;2.87;0.50;;;;;;;9.71;82.40;100694.50;5114463;28;20443;-72
2023/10/15 00:43:54;;;;;;;2.70;0.70;;;;;;;9.63;84.34;100697.06;5114735;28;20431;-73
2023/10/15 00:46:24;;;;;;;1.87;0.40;;;;;;;9.59;83.87;100703.03;5114624;28;20463;-73
2023/10/15 00:48:54;;;;;;;2.20;0.50;;;;;;;9.58;83.68;100698.72;5114066;28;20496;-73
2023/10/15 00:51:23;;;;;;;2.00;0.40;;;;;;;9.53;83.76;100703.41;5114469;28;20554;-72
2023/10/15 00:53:54;;;;;;;1.80;0.30;;;;;;;9.53;84.04;100708.81;5114787;28;20440;-73
2023/10/15 00:56:24;;;;;;;1.80;0.40;;;;;;;9.48;83.72;100712.41;5113851;28;20524;-73
2023/10/15 00:59:13;;;;;;;2.00;0.50;;;;;;;9.51;83.45;100711.00;5114211;28;20463;-73
2023/10/15 01:01:48;;;;;;;2.10;0.50;;;;;;;9.52;83.43;100707.22;5114436;28;20420;-73
2023/10/15 01:04:15;;;;;;;1.80;0.40;;;;;;;9.49;84.20;100707.78;5114564;28;20419;-72
2023/10/15 01:06:46;;;;;;;2.30;1.27;;;;;;;9.46;84.12;100711.88;5114048;28;20467;-73
2023/10/15 01:09:19;;;;;;;1.90;0.40;;;;;;;9.43;84.19;100711.63;5113770;28;20491;-74
2023/10/15 01:11:55;;;;;;;2.50;0.60;;;;;;;9.41;84.10;100717.34;5114170;28;20554;-73
2023/10/15 01:14:27;;;;;;;2.30;0.60;;;;;;;9.42;84.00;100716.25;5114061;28;20768;-74
2023/10/15 01:16:54;;;;;;;1.80;0.40;;;;;;;9.37;84.15;100718.22;5113811;28;20451;-73
2023/10/15 01:19:31;;;;;;;2.10;0.50;;;;;;;9.40;83.71;100709.53;5114042;28;20478;-72
2023/10/15 01:22:01;;;;;;;2.20;0.53;;;;;;;9.34;83.85;100711.47;5113998;28;20522;-71
2023/10/15 01:24:32;;;;;;;3.40;0.50;;;;;;;9.31;84.68;100706.66;5113921;28;20420;-72
2023/10/15 01:27:08;;;;;;;2.00;0.40;;;;;;;9.28;83.76;100705.31;5114234;28;20463;-72
2023/10/15 01:29:35;;;;;;;3.47;0.90;;;;;;;9.34;84.10;100712.31;5113952;28;20476;-72
2023/10/15 01:32:06;;;;;;;2.60;0.70;;;;;;;9.33;84.02;100713.38;5114119;28;20552;-72
2023/10/15 01:34:37;;;;;;;2.60;0.73;;;;;;;9.31;84.34;100707.47;5113878;28;20443;-72
2023/10/15 01:37:10;;;;;;;2.73;0.70;;;;;;;9.33;83.66;100716.06;5113392;28;20486;-72
2023/10/15 01:39:39;;;;;;;3.70;0.83;;;;;;;9.31;84.21;100717.47;5113995;28;20426;-72
2023/10/15 01:42:07;;;;;;;1.80;0.30;;;;;;;9.34;83.19;100728.53;5114344;28;20497;-72
2023/10/15 01:44:33;;;;;;;2.00;0.50;;;;;;;9.29;83.88;100725.84;5113685;28;20450;-73
2023/10/15 01:47:08;;;;;;;2.37;0.60;;;;;;;9.28;83.77;100720.75;5114004;28;20563;-73
2023/10/15 01:49:35;;;;;;;3.40;0.73;;;;;;;9.27;83.98;100725.34;5113941;28;20884;-73
2023/10/15 01:52:09;;;;;;;1.80;0.30;;;;;;;9.21;84.21;100734.63;5113555;28;20485;-73
2023/10/15 01:54:35;;;;;;;3.03;0.60;;;;;;;9.28;83.74;100728.84;5113724;28;20416;-73
2023/10/15 01:57:06;;;;;;;2.10;0.37;;;;;;;9.32;84.48;100724.47;5113825;28;20460;-73
2023/10/15 01:59:45;;;;;;;1.80;0.30;;;;;;;9.35;83.11;100729.31;5113790;28;20511;-73
2023/10/15 02:02:13;;;;;;;1.90;0.40;;;;;;;9.34;83.56;100739.34;5113496;28;20470;-73
2023/10/15 02:04:44;;;;;;;2.50;0.50;;;;;;;9.37;83.22;100742.53;5113788;28;20527;-72
2023/10/15 02:07:13;;;;;;;2.20;0.50;;;;;;;9.35;83.74;100735.53;5114095;28;20852;-72
2023/10/15 02:09:43;;;;;;;1.90;0.43;;;;;;;9.43;84.46;100730.56;5113340;28;20424;-72
2023/10/15 02:12:10;;;;;;;2.37;0.77;;;;;;;9.50;83.83;100725.63;5113937;28;20471;-72
2023/10/15 02:14:41;;;;;;;2.37;0.40;;;;;;;9.54;84.05;100738.25;5113448;28;20539;-72
2023/10/15 02:17:13;;;;;;;3.27;0.70;;;;;;;9.57;83.07;100732.28;5113585;28;20459;-72
2023/10/15 02:19:41;;;;;;;1.80;0.30;;;;;;;9.60;82.41;100742.50;5113743;28;20472;-72
2023/10/15 02:22:12;;;;;;;2.30;0.60;;;;;;;9.59;81.89;100730.06;5113333;28;20427;-72
2023/10/15 02:24:46;;;;;;;1.80;0.40;;;;;;;9.64;82.54;100739.22;5113386;28;20436;-72
2023/10/15 02:27:17;;;;;;;2.20;0.43;;;;;;;9.62;82.08;100744.13;5113559;28;20479;-72
2023/10/15 02:29:49;;;;;;;1.93;0.43;;;;;;;9.58;82.33;100733.88;5115035;28;20779;-72
2023/10/15 02:32:21;;;;;;;1.80;0.40;;;;;;;9.53;81.64;100730.44;5116926;28;20485;-72
2023/10/15 02:34:51;;;;;;;2.37;0.63;;;;;;;9.52;81.66;100739.66;5117061;28;20408;-72
2023/10/15 02:37:19;;;;;;;1.90;0.40;;;;;;;9.50;82.72;100736.44;5116899;28;20459;-72
2023/10/15 02:39:50;;;;;;;3.17;1.00;;;;;;;9.50;82.04;100733.72;5116501;28;20482;-72
2023/10/15 02:42:17;;;;;;;1.80;0.40;;;;;;;9.38;82.59;100744.94;5116892;28;20420;-72
2023/10/15 02:44:46;;;;;;;3.40;0.60;;;;;;;9.27;82.84;100738.88;5116987;28;20432;-72
2023/10/15 02:47:28;;;;;;;1.90;0.30;;;;;;;9.27;82.88;100738.88;5116606;28;20452;-72
2023/10/15 02:50:00;;;;;;;1.80;0.30;;;;;;;9.27;83.60;100732.66;5116645;28;20420;-72
2023/10/15 02:52:35;;;;;;;2.30;0.87;;;;;;;9.19;84.28;100725.97;5116701;28;20557;-72
2023/10/15 02:55:06;;;;;;;1.90;0.40;;;;;;;9.21;83.54;100736.50;5116906;28;20423;-72
2023/10/15 02:57:38;;;;;;;2.40;0.60;;;;;;;9.18;83.21;100731.69;5116194;28;21020;-72
2023/10/15 03:00:13;;;;;;;1.87;0.40;;;;;;;9.12;84.60;100733.66;5116835;28;20420;-72
2023/10/15 03:02:43;;;;;;;2.00;0.50;;;;;;;9.04;85.41;100724.28;5116433;28;20416;-72
2023/10/15 03:05:13;;;;;;;2.43;0.40;;;;;;;9.08;84.29;100733.41;5116701;28;20527;-72
2023/10/15 03:07:42;;;;;;;1.80;0.40;;;;;;;9.05;84.14;100730.47;5115665;28;20983;-72
2023/10/15 03:10:10;;;;;;;7.00;0.60;;;;;;;8.99;84.31;100734.34;5116258;28;20843;-72
2023/10/15 03:12:43;;;;;;;1.97;0.47;;;;;;;9.00;84.22;100738.63;5116709;28;20562;-71
2023/10/15 03:15:13;;;;;;;2.93;1.17;;;;;;;8.97;84.67;100747.31;5115910;28;20431;-72
2023/10/15 03:17:41;;;;;;;2.17;0.73;;;;;;;8.92;84.59;100744.66;5116078;28;20542;-72
2023/10/15 03:20:23;;;;;;;2.00;0.43;;;;;;;8.89;85.40;100737.91;5116189;28;20467;-72
2023/10/15 03:22:58;;;;;;;2.50;0.70;;;;;;;8.91;84.92;100745.75;5116791;28;20473;-71
2023/10/15 03:25:26;;;;;;;1.90;0.50;;;;;;;8.89;85.21;100747.91;5116307;28;20522;-72
2023/10/15 03:27:54;;;;;;;5.07;1.00;;;;;;;8.82;85.89;100754.47;5116848;28;20464;-71
2023/10/15 03:30:24;;;;;;;2.30;0.50;;;;;;;8.76;86.37;100755.59;5116603;28;20450;-72
2023/10/15 03:32:52;;;;;;;2.33;0.60;;;;;;;8.76;86.44;100755.59;5115928;28;20901;-72
2023/10/15 03:35:32;;;;;;;1.97;0.50;;;;;;;8.79;86.12;100748.84;5116011;28;20531;-72
2023/10/15 03:38:04;;;;;;;1.90;0.40;;;;;;;8.77;86.58;100754.53;5115577;28;20455;-71
2023/10/15 03:40:32;;;;;;;1.90;0.40;;;;;;;8.75;85.63;100756.69;5096974;28;20448;-72
2023/10/15 03:43:06;;;;;;;2.00;0.40;;;;;;;8.73;85.63;100761.59;5115921;28;20448;-72
2023/10/15 03:45:40;;;;;;;3.07;0.90;;;;;;;8.69;86.04;100754.34;5115573;28;20428;-72
2023/10/15 03:48:10;;;;;;;2.00;0.50;;;;;;;8.73;85.72;100761.59;5115490;28;21015;-71
2023/10/15 03:50:53;;;;;;;2.40;0.67;;;;;;;8.65;86.27;100759.50;5115398;28;20443;-71
2023/10/15 03:53:20;;;;;;;1.83;0.37;;;;;;;8.68;86.67;100750.03;5114942;28;20884;-72
2023/10/15 03:55:49;;;;;;;1.80;0.30;;;;;;;8.69;86.49;100755.16;5115235;28;20508;-72
2023/10/15 03:58:16;;;;;;;1.90;0.40;;;;;;;8.65;87.01;100758.69;5115713;28;20504;-72
2023/10/15 04:00:47;;;;;;;3.80;0.93;;;;;;;8.67;86.71;100761.91;5115856;28;20500;-72
2023/10/15 04:03:18;;;;;;;2.00;0.50;;;;;;;8.70;86.35;100761.34;5115368;28;20443;-71
2023/10/15 04:05:52;;;;;;;2.10;0.53;;;;;;;8.70;85.90;100761.34;5115241;28;20524;-72
2023/10/15 04:08:19;;;;;;;4.40;0.63;;;;;;;8.68;86.09;100756.25;5114635;28;20451;-71
2023/10/15 04:10:55;;;;;;;2.10;0.67;;;;;;;8.64;86.41;100755.19;5114927;28;20519;-71
2023/10/15 04:13:21;;;;;;;2.47;0.50;;;;;;;8.57;87.14;100752.00;5114969;28;20870;-72
2023/10/15 04:15:50;;;;;;;3.43;0.70;;;;;;;8.54;87.26;100747.16;5114779;28;20436;-71
2023/10/15 04:18:17;;;;;;;2.90;0.87;;;;;;;8.55;87.20;100746.09;5114918;28;20856;-70
2023/10/15 04:20:44;;;;;;;2.20;0.60;;;;;;;8.59;86.80;100744.44;5114779;28;20438;-70
2023/10/15 04:23:12;;;;;;;2.20;0.50;;;;;;;8.52;87.38;100727.75;5114779;28;20431;-73
2023/10/15 04:25:38;;;;;;;1.90;0.40;;;;;;;8.51;86.90;100736.94;5114419;28;20526;-72
2023/10/15 04:28:12;;;;;;;1.90;0.40;;;;;;;8.46;87.51;100728.91;5114867;28;20534;-72
2023/10/15 04:30:40;;;;;;;4.23;0.90;;;;;;;8.49;86.98;100728.31;5114791;28;20424;-72
2023/10/15 04:33:11;;;;;;;2.03;0.50;;;;;;;8.51;87.06;100726.16;5114481;28;20479;-73
2023/10/15 04:35:38;;;;;;;2.60;0.60;;;;;;;8.49;87.44;100728.31;5114333;28;20427;-73
2023/10/15 04:38:07;;;;;;;1.83;0.30;;;;;;;8.45;87.89;100711.06;5115095;28;20542;-72
2023/10/15 04:40:47;;;;;;;2.00;0.50;;;;;;;8.47;86.96;100708.91;5114691;28;20439;-72
2023/10/15 04:43:17;;;;;;;2.90;1.00;;;;;;;8.47;86.79;100712.41;5114656;28;20456;-73
2023/10/15 04:45:44;;;;;;;1.80;0.40;;;;;;;8.43;87.33;100713.25;5114472;28;20440;-72
2023/10/15 04:48:15;;;;;;;4.47;0.70;;;;;;;8.37;88.18;100709.81;5114538;28;20447;-72
2023/10/15 04:50:44;;;;;;;2.40;0.57;;;;;;;8.38;87.57;100705.22;5114890;28;20891;-72
2023/10/15 04:53:23;;;;;;;2.20;0.50;;;;;;;8.31;88.20;100705.50;5113480;28;20480;-72
2023/10/15 04:55:53;;;;;;;2.00;0.40;;;;;;;8.27;88.61;100707.13;5114462;28;20416;-72
2023/10/15 04:58:20;;;;;;;2.60;0.60;;;;;;;8.23;88.93;100701.50;5114231;28;20530;-72
2023/10/15 05:00:48;;;;;;;2.10;0.50;;;;;;;8.29;89.33;100707.69;5114138;28;20851;-72
2023/10/15 05:03:17;;;;;;;1.90;0.40;;;;;;;8.32;88.45;100717.88;5114423;28;20432;-73
2023/10/15 05:05:44;;;;;;;1.80;0.40;;;;;;;8.28;88.31;100714.97;5114041;28;20423;-73
2023/10/15 05:08:11;;;;;;;2.60;0.53;;;;;;;8.27;89.44;100709.84;5114334;28;20547;-73
2023/10/15 05:10:44;;;;;;;1.87;0.43;;;;;;;8.32;89.85;100718.72;5114014;28;20436;-72
2023/10/15 05:13:11;;;;;;;2.30;0.50;;;;;;;8.28;89.26;100727.66;5113741;28;20455;-73
2023/10/15 05:15:38;;;;;;;2.13;0.60;;;;;;;8.26;89.35;100724.44;5114431;28;20484;-73
2023/10/15 05:18:05;;;;;;;3.03;0.60;;;;;;;8.25;89.51;100734.41;5114462;28;20489;-73
2023/10/15 05:20:36;;;;;;;1.90;0.47;;;;;;;8.31;88.31;100729.78;5113966;28;20522;-73
2023/10/15 05:23:03;;;;;;;1.80;0.40;;;;;;;8.22;88.75;100724.19;5114287;28;20806;-72
2023/10/15 05:25:29;;;;;;;2.33;0.50;;;;;;;8.23;89.50;100728.47;5113938;28;20938;-72
2023/10/15 05:27:56;;;;;;;2.40;0.60;;;;;;;8.19;89.75;100730.16;5113639;28;20478;-72
2023/10/15 05:30:23;;;;;;;2.50;0.70;;;;;;;8.17;89.88;100732.31;5114339;28;20447;-72
2023/10/15 05:32:50;;;;;;;4.00;0.70;;;;;;;8.14;90.06;100730.16;5114035;28;20475;-72
2023/10/15 05:35:17;;;;;;;2.30;0.60;;;;;;;8.16;89.89;100733.41;5113788;28;20466;-72
2023/10/15 05:37:46;;;;;;;1.83;0.40;;;;;;;8.12;90.35;100740.44;5113647;28;20460;-72
2023/10/15 05:40:15;;;;;;;1.90;0.40;;;;;;;8.12;90.26;100735.06;5114249;28;20578;-72
2023/10/15 05:42:42;;;;;;;3.20;0.60;;;;;;;8.16;90.70;100735.31;5113327;28;20438;-72
2023/10/15 05:45:10;;;;;;;2.30;0.60;;;;;;;8.11;90.40;100746.13;5113806;28;20941;-72
2023/10/15 05:47:37;;;;;;;2.00;0.50;;;;;;;8.14;90.46;100740.97;5113149;28;20974;-72
2023/10/15 05:50:05;;;;;;;1.90;0.50;;;;;;;8.20;89.90;100747.16;5114155;28;20527;-72
2023/10/15 05:52:32;;;;;;;2.10;0.47;;;;;;;8.17;89.18;100737.72;5113586;28;20844;-72
2023/10/15 05:55:00;;;;;;;2.10;0.50;;;;;;;8.13;89.87;100752.84;5113822;28;20817;-73
2023/10/15 05:57:28;;;;;;;1.90;0.40;;;;;;;8.14;90.99;100742.84;5113543;28;20467;-72
2023/10/15 05:59:55;;;;;;;1.87;0.37;;;;;;;8.17;91.18;100750.41;5113636;28;20439;-72
2023/10/15 06:02:22;;;;;;;1.83;0.40;;;;;;;8.16;89.70;100749.59;5113951;28;20910;-73
2023/10/15 06:04:48;;;;;;;1.93;0.50;;;;;;;8.18;90.42;100742.00;5117131;28;20447;-72
2023/10/15 06:07:15;;;;;;;2.00;0.50;;;;;;;8.26;90.21;100741.41;5117463;28;20469;-72
2023/10/15 06:09:44;;;;;;;2.00;0.50;;;;;;;8.31;89.53;100748.66;5117410;28;20426;-72
2023/10/15 06:12:13;;;;;;;1.90;0.40;;;;;;;8.37;88.82;100744.91;5117036;28;20486;-72
2023/10/15 06:14:39;;;;;;;3.83;0.57;;;;;;;8.36;88.88;100745.94;5117719;28;20444;-72
2023/10/15 06:17:06;;;;;;;2.10;0.57;;;;;;;8.32;88.47;100744.88;5117517;28;20542;-72
2023/10/15 06:19:34;;;;;;;1.90;0.40;;;;;;;8.29;89.63;100748.97;5117894;28;20938;-72
2023/10/15 06:22:00;;;;;;;1.90;0.57;;;;;;;8.30;88.98;100761.34;5117676;28;20436;-72
2023/10/15 06:24:27;;;;;;;2.93;0.47;;;;;;;8.27;89.35;100751.13;5117473;28;20523;-72
2023/10/15 06:26:54;;;;;;;1.90;0.40;;;;;;;8.35;89.33;100755.13;5117095;28;20520;-72
2023/10/15 06:29:22;;;;;;;1.90;0.40;;;;;;;8.37;89.83;100758.38;5116896;28;20450;-72
2023/10/15 06:31:48;;;;;;;2.77;0.60;;;;;;;8.45;88.92;100762.34;5116937;28;20431;-72
2023/10/15 06:34:15;;;;;;;2.63;0.57;;;;;;;8.48;88.38;100759.91;5117290;28;20438;-72
2023/10/15 06:36:42;;;;;;;7.30;0.77;;;;;;;8.48;88.87;100778.81;5116831;28;20509;-72
2023/10/15 06:39:09;;;;;;;5.93;0.83;;;;;;;8.52;88.39;100771.75;5116837;28;20435;-72
2023/10/15 06:41:36;;;;;;;2.20;0.60;;;;;;;8.45;89.72;100773.16;5117026;28;20796;-72
2023/10/15 06:44:03;;;;;;;2.00;0.57;;;;;;;8.41;88.84;100767.53;5117691;28;20431;-72
2023/10/15 06:46:33;;;;;;;1.83;0.40;;;;;;;8.45;88.64;100763.16;5116985;28;20463;-72
2023/10/15 06:48:59;;;;;;;1.80;0.30;;;;;;;8.53;87.41;100762.56;5116766;28;20444;-71
2023/10/15 06:51:27;;;;;;;1.80;0.40;;;;;;;8.54;87.70;100763.34;5116655;28;20523;-72
2023/10/15 06:53:54;;;;;;;1.90;0.53;;;;;;;8.51;87.91;100758.53;5116486;28;20500;-72
2023/10/15 06:56:21;;;;;;;4.37;0.40;;;;;;;8.55;88.26;100765.00;5116635;28;20463;-72
2023/10/15 06:58:48;;;;;;;1.90;0.40;;;;;;;8.58;88.41;100776.00;5116835;28;20439;-72
2023/10/15 07:01:15;;;;;;;2.60;0.60;;;;;;;8.63;88.04;100777.84;5116445;28;20447;-72
2023/10/15 07:03:43;;;;;;;1.90;0.43;;;;;;;8.72;87.96;100786.16;5116024;28;20435;-69
2023/10/15 07:06:09;;;;;;;2.13;0.40;;;;;;;8.75;87.59;100781.00;5116209;28;20455;-69
2023/10/15 07:08:36;;;;;;;2.73;1.00;;;;;;;8.80;86.91;100788.25;5115805;28;20538;-72
2023/10/15 07:11:05;;;;;;;3.40;0.67;;;;;;;8.75;87.46;100797.19;5116202;28;20878;-69
2023/10/15 07:13:31;;;;;;;1.80;0.40;;;;;;;8.82;88.01;100791.50;5116050;28;20849;-70
2023/10/15 07:16:00;;;;;;;1.90;0.40;;;;;;;8.86;87.88;100797.13;5115232;28;20443;-70
2023/10/15 07:18:27;;;;;;;2.20;0.60;;;;;;;8.89;86.61;100807.34;5116300;28;20444;-69
2023/10/15 07:20:55;;;;;;;1.83;0.37;;;;;;;8.84;86.57;100806.31;5116424;28;20439;-69
2023/10/15 07:23:22;;;;;;;3.50;0.80;;;;;;;8.89;86.63;100812.75;5116295;28;20923;-69
2023/10/15 07:25:49;;;;;;;1.80;0.40;;;;;;;8.91;87.34;100813.28;5115947;28;20531;-69
2023/10/15 07:28:16;;;;;;;2.00;0.40;;;;;;;8.98;86.28;100813.75;5116290;28;20883;-69
2023/10/15 07:30:43;;;;;;;2.10;0.50;;;;;;;8.95;86.43;100806.22;5115896;28;20439;-70
2023/10/15 07:33:10;;;;;;;1.80;0.40;;;;;;;9.00;85.94;100819.69;5116101;28;20572;-69
2023/10/15 07:35:37;;;;;;;2.13;0.43;;;;;;;9.01;86.85;100819.41;5116525;28;20546;-69
2023/10/15 07:38:07;;;;;;;2.10;0.50;;;;;;;9.06;86.18;100823.94;5115608;28;20459;-70
2023/10/15 07:40:34;;;;;;;1.80;0.30;;;;;;;9.08;86.61;100816.38;5115341;28;20924;-71
2023/10/15 07:43:02;;;;;;;1.80;0.40;;;;;;;9.22;85.78;100819.22;5115905;28;20796;-69
2023/10/15 07:45:33;;;;;;;2.10;0.50;;;;;;;9.28;85.19;100821.56;5115602;28;20443;-72
2023/10/15 07:48:01;;;;;;;2.27;0.60;;;;;;;9.25;84.85;100821.31;5116096;28;20463;-74
2023/10/15 07:50:29;;;;;;;2.03;0.47;;;;;;;9.32;84.91;100838.00;5115612;28;20440;-74
2023/10/15 07:52:56;;;;;;;1.80;0.30;;;;;;;9.45;83.93;100826.53;5115687;28;20479;-74
2023/10/15 07:55:25;;;;;;;3.10;0.57;;;;;;;9.44;84.02;100832.22;5115771;28;20534;-73
2023/10/15 07:57:52;;;;;;;2.00;0.50;;;;;;;9.46;84.08;100832.72;5115543;28;20491;-74
2023/10/15 08:00:23;;;;;;;4.83;1.17;;;;;;;9.53;82.54;100831.31;5115251;28;20530;-75
2023/10/15 08:02:52;;;;;;;2.63;0.73;;;;;;;9.61;81.99;100832.56;5115050;28;20900;-72
2023/10/15 08:05:20;;;;;;;2.00;0.57;;;;;;;9.57;81.44;100829.63;5115531;28;20444;-74
2023/10/15 08:07:48;;;;;;;2.20;0.40;;;;;;;9.58;81.73;100846.66;5114624;28;21027;-71
2023/10/15 08:10:17;;;;;;;2.53;0.70;;;;;;;9.56;81.21;100852.38;5115531;28;20427;-70
2023/10/15 08:12:45;;;;;;;1.90;0.40;;;;;;;9.50;82.47;100831.06;5114964;28;20520;-70
2023/10/15 08:15:12;;;;;;;1.97;0.50;;;;;;;9.56;83.04;100854.25;5114994;28;20805;-70
2023/10/15 08:17:38;;;;;;;2.30;0.50;;;;;;;9.69;82.92;100848.13;5115046;28;20460;-70
2023/10/15 08:20:09;;;;;;;1.80;0.37;;;;;;;9.74;81.56;100855.38;5115699;28;20455;-70
2023/10/15 08:22:36;;;;;;;2.00;0.50;;;;;;;9.77;79.92;100852.91;5115292;28;20766;-70
2023/10/15 08:25:02;;;;;;;2.03;0.37;;;;;;;9.82;81.01;100857.47;5114487;28;21022;-70
2023/10/15 08:27:29;;;;;;;2.63;0.67;;;;;;;9.84;81.23;100856.09;5114377;28;20468;-70
2023/10/15 08:29:57;;;;;;;1.90;0.40;;;;;;;9.81;80.30;100862.06;5114688;28;20479;-70
2023/10/15 08:32:26;;;;;;;2.30;0.53;;;;;;;9.85;79.28;100859.59;5114575;28;20435;-70
2023/10/15 08:34:53;;;;;;;1.83;0.40;;;;;;;9.92;79.54;100854.66;5114568;28;20469;-71
2023/10/15 08:37:20;;;;;;;1.87;0.50;;;;;;;9.89;79.68;100846.31;5114177;28;21030;-71
2023/10/15 08:39:46;;;;;;;2.93;0.60;;;;;;;9.93;79.73;100844.63;5114464;28;20439;-70
2023/10/15 08:42:14;;;;;;;2.10;0.50;;;;;;;9.92;80.57;100856.56;5114415;28;20488;-70
2023/10/15 08:44:41;;;;;;;2.00;0.50;;;;;;;9.98;78.89;100849.97;5114332;28;20435;-71
2023/10/15 08:47:11;;;;;;;1.80;0.40;;;;;;;9.96;78.54;100846.72;5114369;28;20459;-71
2023/10/15 08:49:46;;;;;;;1.80;0.50;;;;;;;9.99;78.61;100848.88;5114637;28;20956;-71
2023/10/15 08:52:15;;;;;;;1.70;0.30;;;;;;;10.11;78.99;100847.34;5114730;28;20458;-71
2023/10/15 08:54:44;;;;;;;2.00;0.50;;;;;;;10.21;78.34;100845.59;5114392;28;20475;-71
2023/10/15 08:57:12;;;;;;;1.80;0.40;;;;;;;10.41;77.40;100853.47;5114129;28;20447;-70
2023/10/15 08:59:39;;;;;;;2.57;0.60;;;;;;;10.56;78.12;100850.53;5114691;28;20439;-70
2023/10/15 09:02:06;;;;;;;1.80;0.30;;;;;;;10.66;76.10;100865.03;5114777;28;20440;-71
2023/10/15 09:04:34;;;;;;;2.10;0.40;;;;;;;10.71;75.55;100876.56;5114163;28;20435;-70
2023/10/15 09:07:02;;;;;;;1.80;0.40;;;;;;;10.71;75.43;100873.06;5114082;28;20456;-71
2023/10/15 09:09:30;;;;;;;1.80;0.30;;;;;;;10.65;73.87;100875.06;5113925;28;20454;-70
2023/10/15 09:11:56;;;;;;;1.80;0.40;;;;;;;10.49;75.00;100873.66;5114108;28;20496;-70
2023/10/15 09:14:37;;;;;;;1.80;0.30;;;;;;;10.50;75.10;100873.38;5113945;28;20476;-70
2023/10/15 09:17:06;;;;;;;1.80;0.40;;;;;;;10.48;75.49;100891.00;5113633;28;20462;-69
2023/10/15 09:19:34;;;;;;;4.97;0.50;;;;;;;10.51;74.73;100879.59;5114119;28;20492;-71
2023/10/15 09:22:01;;;;;;;1.90;0.40;;;;;;;10.51;75.01;100882.31;5113584;28;20526;-72
2023/10/15 09:24:28;;;;;;;2.20;0.50;;;;;;;10.50;74.96;100889.63;5113987;28;20778;-70
2023/10/15 09:26:54;;;;;;;2.23;0.60;;;;;;;10.46;75.06;100887.81;5113689;28;20467;-70
2023/10/15 09:29:21;;;;;;;2.10;0.50;;;;;;;10.49;74.71;100888.03;5113810;28;20465;-70
2023/10/15 09:31:49;;;;;;;1.80;0.50;;;;;;;10.46;74.66;100906.75;5113773;28;20439;-70
2023/10/15 09:34:15;;;;;;;1.80;0.40;;;;;;;10.41;75.97;100893.31;5114089;28;20482;-70
2023/10/15 09:36:43;;;;;;;1.80;0.40;;;;;;;10.49;75.04;100903.44;5114102;28;20540;-70
2023/10/15 09:39:12;;;;;;;2.10;0.40;;;;;;;10.49;73.79;100908.88;5117008;28;20435;-70
2023/10/15 09:41:40;;;;;;;1.80;0.40;;;;;;;10.49;75.12;100919.69;5118063;28;20539;-70
2023/10/15 09:44:08;;;;;;;1.83;0.40;;;;;;;10.63;73.98;100909.78;5117720;28;20431;-70
2023/10/15 09:46:34;;;;;;;1.90;0.50;;;;;;;10.70;74.21;100914.81;5117996;28;20459;-70
2023/10/15 09:49:04;;;;;;;2.00;0.47;;;;;;;10.79;73.86;100921.16;5118505;28;20447;-70
2023/10/15 09:51:32;;;;;;;1.80;0.40;;;;;;;10.89;74.17;100918.31;5117544;28;20500;-70
2023/10/15 09:54:00;;;;;;;1.80;0.40;;;;;;;11.05;76.15;100916.97;5117649;28;20532;-71
2023/10/15 09:56:29;;;;;;;1.80;0.40;;;;;;;11.27;72.25;100921.75;5117455;28;20447;-70
2023/10/15 09:58:56;;;;;;;6.27;0.47;;;;;;;11.37;70.02;100921.56;5117894;28;20442;-70
2023/10/15 10:01:28;;;;;;;1.80;0.33;;;;;;;11.40;69.44;100935.66;5118356;28;20776;-70
2023/10/15 10:04:18;;;;;;;1.77;0.33;;;;;;;11.35;69.55;100939.25;5118243;28;20416;-70
2023/10/15 10:07:12;;;;;;;2.10;0.50;;;;;;;11.36;70.83;100938.94;5117906;28;20551;-70
2023/10/15 10:10:12;;;;;;;6.23;0.63;;;;;;;11.36;70.74;100932.72;5117510;28;20424;-70
2023/10/15 10:13:03;;;;;;;1.80;0.40;;;;;;;11.41;70.47;100929.13;5115104;28;20547;-70
2023/10/15 10:15:40;;;;;;;1.80;0.40;;;;;;;11.47;69.68;100936.09;5117563;28;20488;-69
2023/10/15 10:18:07;;;;;;;2.30;0.50;;;;;;;11.47;69.28;100934.19;5117589;28;20451;-70
2023/10/15 10:20:37;;;;;;;2.80;0.57;;;;;;;11.63;68.14;100931.97;5117370;28;20813;-69
2023/10/15 10:23:07;;;;;;;1.90;0.50;;;;;;;11.78;68.41;100933.63;5117815;28;20530;-70
2023/10/15 10:25:39;;;;;;;2.20;0.40;;;;;;;12.02;67.87;100928.81;5117140;28;20889;-70
2023/10/15 10:28:09;;;;;;;2.27;0.50;;;;;;;12.21;65.55;100930.63;5116969;28;20985;-69
2023/10/15 10:30:38;;;;;;;3.93;0.70;;;;;;;12.11;65.58;100924.28;5117067;28;20960;-70
2023/10/15 10:33:05;;;;;;;1.90;0.43;;;;;;;11.96;66.81;100934.66;5116669;28;20446;-69
2023/10/15 10:35:43;;;;;;;1.70;0.30;;;;;;;11.78;67.63;100926.28;5116919;28;20434;-70
2023/10/15 10:38:17;;;;;;;2.00;0.50;;;;;;;11.73;68.31;100925.56;5117344;28;20420;-70
2023/10/15 10:40:49;;;;;;;1.90;0.50;;;;;;;11.62;68.94;100922.22;5117309;28;20451;-69
2023/10/15 10:43:19;;;;;;;2.37;0.60;;;;;;;11.54;68.13;100939.19;5116937;28;20438;-69
2023/10/15 10:45:55;;;;;;;2.00;0.50;;;;;;;11.37;68.18;100928.91;5116764;28;20477;-70
2023/10/15 10:48:23;;;;;;;1.80;0.40;;;;;;;11.35;68.39;100923.78;5116502;28;20496;-69
2023/10/15 10:51:12;;;;;;;2.07;0.47;;;;;;;11.42;69.53;100933.44;5115496;28;20528;-70
2023/10/15 10:53:39;;;;;;;2.00;0.40;;;;;;;11.61;69.82;100924.16;5116469;28;20483;-70
2023/10/15 10:56:07;;;;;;;2.03;0.40;;;;;;;11.92;67.99;100926.31;5116964;28;20485;-70
2023/10/15 10:58:37;;;;;;;1.80;0.40;;;;;;;12.01;66.47;100921.00;5116681;28;20445;-69
2023/10/15 11:01:06;;;;;;;1.80;0.40;;;;;;;11.95;67.02;100922.19;5116741;28;20466;-69
2023/10/15 11:03:33;;;;;;;2.03;0.47;;;;;;;12.02;65.51;100925.31;5116464;28;20931;-70
2023/10/15 11:06:00;;;;;;;1.77;0.30;;;;;;;12.31;65.31;100920.34;5116284;28;20530;-70
2023/10/15 11:08:27;;;;;;;1.80;0.40;;;;;;;12.23;61.37;100917.56;5116122;28;20447;-70
2023/10/15 11:10:53;;;;;;;1.80;0.40;;;;;;;12.12;63.06;100920.47;5116372;28;20515;-70
2023/10/15 11:13:20;;;;;;;2.40;0.83;;;;;;;12.27;65.49;100922.06;5115951;28;20493;-70
2023/10/15 11:15:50;;;;;;;2.93;0.50;;;;;;;13.35;63.78;100925.84;5116059;28;20440;-70
2023/10/15 11:18:21;;;;;;;2.87;0.60;;;;;;;14.44;58.77;100928.81;5116661;28;20435;-70
2023/10/15 11:20:50;;;;;;;1.80;0.40;;;;;;;14.74;55.34;100932.59;5115705;28;20907;-70
2023/10/15 11:23:17;;;;;;;1.80;0.37;;;;;;;14.12;55.80;100936.28;5115670;28;20932;-70
2023/10/15 11:25:44;;;;;;;3.27;0.57;;;;;;;13.46;57.31;100927.22;5115903;28;20435;-72
2023/10/15 11:28:12;;;;;;;3.40;0.80;;;;;;;13.27;59.15;100918.44;5116205;28;20538;-71
2023/10/15 11:30:41;;;;;;;2.30;0.70;;;;;;;13.57;57.14;100930.44;5115843;28;21006;-69
2023/10/15 11:33:10;;;;;;;1.93;0.60;;;;;;;13.86;56.94;100925.31;5116181;28;20912;-69
2023/10/15 11:35:38;;;;;;;2.20;0.57;;;;;;;14.12;55.91;100927.28;5115306;28;20990;-70
2023/10/15 11:38:09;;;;;;;2.10;0.63;;;;;;;14.81;53.18;100926.63;5115338;28;21019;-70
2023/10/15 11:40:37;;;;;;;1.80;0.40;;;;;;;14.47;53.61;100928.16;5115933;28;20466;-69
2023/10/15 11:43:09;;;;;;;2.67;0.60;;;;;;;13.68;55.88;100929.09;5115867;28;20870;-70